Airfield :
LOGIN :

Register | Disclaimer

   EN    FR    IT 

 










Legend :    VFR   Marginal VFR   IFR   Intensive IFR   Very Intensive IFR
Visi :
Ceiling :
>= 8 km
>= 3000ft
5 to 8 km
1000 to 3000 ft
1500m to 5 km
500 to 1000 ft
800 to 1500m
200 to 500 ft
< 800m
< 200 ft
Symbols :   Thunderstorms  Fog  Heavy snow  Heavy precipitations  Wind > 20 kt
SIGMETs :     Misc.  Thunderstorms  Icing  Turbulence  Mountain Waves  Volcanic Ashes







- Airport Elevation : 326 ft
- IATA code : LCG
- Download approach charts


LECO - A Coruna

CURRENT METAR :
  • 170400Z AUTO 18004KT 150V210 1100 0200SW R21/1900N R03/0700U BR BCFG SCT038/// 05/04 Q1021

EXPIRED METARs :
  • 170330Z AUTO 19005KT 9999 FEW032/// SCT046/// 06/05 Q1021
  • 170300Z AUTO 20005KT 9999 FEW033/// SCT044/// 06/05 Q1021
  • 170230Z AUTO 20003KT 9999 FEW033/// SCT048/// 06/05 Q1021
  • 170200Z AUTO 18004KT 140V230 9999 BKN029/// BKN037/// 07/06 Q1021
  • 170130Z AUTO 15003KT 060V200 9999 FEW033/// 07/06 Q1021

TAF TAF LECO
Valid from the 17 at 03:00 until the 18 at 03:00 UTC


170200Z 1703/1803 35008KT 9999 SCT030 TX11/1715Z TN04/1707Z
TEMPO 1703/1715 SHRA SCT030TCU
No reported NOTAMs for that airfield.



MET'MAP, your aeronautical weather chart ! - Copyright ORBIFLY December 2007 - Disclaimer

ORBIFLY MET'MAP TEAM :

Programming & Development : Alexandra Zaïnal
Concept & Development : Baudouin d'Aumeries
Co-Development & Prog : Marc-Olivier Méhu
Technical & hardware support : Manuel Goepfert

Contact : metmap@orbifly.com




SOURCES & CREDITS :

   NOAA